Terminal Aerodrome Forecast
Issued by NWS

Home | Current Version | Previous Version | Graphics & Text | Print | Product List | Glossary On
Versions: 1 2 3 4 5 6 7 8 9 10 11 12 13 14
111
FTUS43 KUNR 242320
TAFGCC
TAF
KGCC 242320Z 2500/2524 18011KT P6SM SKC
     FM250500 17018G27KT P6SM FEW250
     FM251500 23009KT P6SM BKN140
     FM251800 34008KT P6SM BKN120=

USA.gov is the U.S. government's official web portal to all federal, state and local government web resources and services.